sensor_id;sensor_type;location;lat;lon;timestamp;pressure;altitude;pressure_sealevel;temperature;humidity
63447;BME280;49577;49.872;6.190;2022-08-03T00:01:15;99526.13;;;17.18;68.72
63447;BME280;49577;49.872;6.190;2022-08-03T00:03:40;99525.63;;;17.14;68.67
63447;BME280;49577;49.872;6.190;2022-08-03T00:06:05;99530.98;;;17.10;68.94
63447;BME280;49577;49.872;6.190;2022-08-03T00:08:31;99539.30;;;17.06;69.21
63447;BME280;49577;49.872;6.190;2022-08-03T00:10:56;99536.70;;;17.01;69.30
63447;BME280;49577;49.872;6.190;2022-08-03T00:13:21;99534.71;;;16.98;69.23
63447;BME280;49577;49.872;6.190;2022-08-03T00:15:47;99530.30;;;16.91;69.34
63447;BME280;49577;49.872;6.190;2022-08-03T00:18:12;99529.41;;;16.88;69.49
63447;BME280;49577;49.872;6.190;2022-08-03T00:20:37;99528.35;;;16.82;69.67
63447;BME280;49577;49.872;6.190;2022-08-03T00:23:03;99527.20;;;16.77;69.74
63447;BME280;49577;49.872;6.190;2022-08-03T00:25:28;99528.94;;;16.72;69.72
63447;BME280;49577;49.872;6.190;2022-08-03T00:27:53;99526.55;;;16.68;70.03
63447;BME280;49577;49.872;6.190;2022-08-03T00:30:19;99528.22;;;16.66;70.12
63447;BME280;49577;49.872;6.190;2022-08-03T00:32:44;99526.89;;;16.65;70.20
63447;BME280;49577;49.872;6.190;2022-08-03T00:35:09;99529.69;;;16.63;70.15
63447;BME280;49577;49.872;6.190;2022-08-03T00:37:35;99529.73;;;16.61;70.12
63447;BME280;49577;49.872;6.190;2022-08-03T00:40:01;99525.27;;;16.59;70.28
63447;BME280;49577;49.872;6.190;2022-08-03T00:42:26;99526.34;;;16.57;70.38
63447;BME280;49577;49.872;6.190;2022-08-03T00:44:51;99520.70;;;16.55;70.41
63447;BME280;49577;49.872;6.190;2022-08-03T00:47:16;99520.61;;;16.50;70.42
63447;BME280;49577;49.872;6.190;2022-08-03T00:49:41;99518.40;;;16.45;70.49
63447;BME280;49577;49.872;6.190;2022-08-03T00:52:07;99515.82;;;16.40;70.73
63447;BME280;49577;49.872;6.190;2022-08-03T00:54:34;99517.67;;;16.35;70.90
63447;BME280;49577;49.872;6.190;2022-08-03T00:57:00;99520.26;;;16.32;71.03
63447;BME280;49577;49.872;6.190;2022-08-03T00:59:25;99519.03;;;16.28;71.16
63447;BME280;49577;49.872;6.190;2022-08-03T01:01:52;99516.52;;;16.25;71.18
63447;BME280;49577;49.872;6.190;2022-08-03T01:04:17;99516.27;;;16.21;71.25
63447;BME280;49577;49.872;6.190;2022-08-03T01:06:44;99512.64;;;16.21;71.38
63447;BME280;49577;49.872;6.190;2022-08-03T01:14:59;99509.29;;;16.06;71.64
63447;BME280;49577;49.872;6.190;2022-08-03T01:17:43;99508.60;;;16.02;71.88
63447;BME280;49577;49.872;6.190;2022-08-03T01:20:13;99510.61;;;16.00;71.99
63447;BME280;49577;49.872;6.190;2022-08-03T01:30:42;99506.19;;;15.83;72.43
63447;BME280;49577;49.872;6.190;2022-08-03T01:33:25;99500.84;;;15.80;72.43
63447;BME280;49577;49.872;6.190;2022-08-03T01:38:23;99500.73;;;15.75;72.63
63447;BME280;49577;49.872;6.190;2022-08-03T01:40:51;99500.55;;;15.77;72.66
63447;BME280;49577;49.872;6.190;2022-08-03T01:43:18;99501.15;;;15.81;72.44
63447;BME280;49577;49.872;6.190;2022-08-03T01:45:45;99501.05;;;15.80;72.42
63447;BME280;49577;49.872;6.190;2022-08-03T01:48:11;99498.88;;;15.78;72.35
63447;BME280;49577;49.872;6.190;2022-08-03T01:50:40;99500.70;;;15.73;72.39
63447;BME280;49577;49.872;6.190;2022-08-03T01:53:06;99502.22;;;15.66;72.52
63447;BME280;49577;49.872;6.190;2022-08-03T01:55:33;99503.51;;;15.63;72.81
63447;BME280;49577;49.872;6.190;2022-08-03T01:58:02;99501.82;;;15.60;72.75
63447;BME280;49577;49.872;6.190;2022-08-03T02:00:28;99505.77;;;15.57;73.01
63447;BME280;49577;49.872;6.190;2022-08-03T02:02:53;99504.51;;;15.55;72.94
63447;BME280;49577;49.872;6.190;2022-08-03T02:05:20;99505.36;;;15.52;73.01
63447;BME280;49577;49.872;6.190;2022-08-03T02:07:45;99503.05;;;15.50;73.19
63447;BME280;49577;49.872;6.190;2022-08-03T02:10:12;99501.35;;;15.47;73.33
63447;BME280;49577;49.872;6.190;2022-08-03T02:12:37;99499.22;;;15.43;73.38
63447;BME280;49577;49.872;6.190;2022-08-03T02:15:03;99500.80;;;15.38;73.50
63447;BME280;49577;49.872;6.190;2022-08-03T02:17:29;99498.50;;;15.35;73.54
63447;BME280;49577;49.872;6.190;2022-08-03T02:19:56;99496.54;;;15.33;73.65
63447;BME280;49577;49.872;6.190;2022-08-03T02:22:22;99497.98;;;15.32;73.64
63447;BME280;49577;49.872;6.190;2022-08-03T02:24:48;99499.95;;;15.28;73.59
63447;BME280;49577;49.872;6.190;2022-08-03T02:27:18;99506.31;;;15.25;73.73
63447;BME280;49577;49.872;6.190;2022-08-03T02:29:45;99505.59;;;15.24;73.93
63447;BME280;49577;49.872;6.190;2022-08-03T02:32:13;99502.93;;;15.22;73.96
63447;BME280;49577;49.872;6.190;2022-08-03T02:34:39;99504.38;;;15.17;73.83
63447;BME280;49577;49.872;6.190;2022-08-03T02:37:04;99501.98;;;15.12;74.05
63447;BME280;49577;49.872;6.190;2022-08-03T02:39:30;99501.21;;;15.07;74.01
63447;BME280;49577;49.872;6.190;2022-08-03T02:41:58;99497.85;;;15.03;74.15
63447;BME280;49577;49.872;6.190;2022-08-03T02:44:27;99498.48;;;14.99;74.28
63447;BME280;49577;49.872;6.190;2022-08-03T02:46:57;99499.46;;;14.96;74.38
63447;BME280;49577;49.872;6.190;2022-08-03T02:49:25;99495.39;;;14.94;74.43
63447;BME280;49577;49.872;6.190;2022-08-03T02:51:51;99501.55;;;14.92;74.44
63447;BME280;49577;49.872;6.190;2022-08-03T02:54:17;99498.55;;;14.92;74.63
63447;BME280;49577;49.872;6.190;2022-08-03T02:56:43;99497.23;;;14.91;74.48
63447;BME280;49577;49.872;6.190;2022-08-03T02:59:09;99496.23;;;14.90;74.52
63447;BME280;49577;49.872;6.190;2022-08-03T03:01:35;99496.17;;;14.86;74.51
63447;BME280;49577;49.872;6.190;2022-08-03T03:04:02;99496.52;;;14.83;74.58
63447;BME280;49577;49.872;6.190;2022-08-03T03:06:27;99498.08;;;14.80;74.59
63447;BME280;49577;49.872;6.190;2022-08-03T03:08:54;99498.75;;;14.77;74.83
63447;BME280;49577;49.872;6.190;2022-08-03T03:11:20;99494.38;;;14.72;74.89
63447;BME280;49577;49.872;6.190;2022-08-03T03:13:46;99497.25;;;14.69;75.01
63447;BME280;49577;49.872;6.190;2022-08-03T03:16:12;99496.68;;;14.68;75.17
63447;BME280;49577;49.872;6.190;2022-08-03T03:18:38;99495.88;;;14.66;75.22
63447;BME280;49577;49.872;6.190;2022-08-03T03:21:03;99498.60;;;14.66;75.51
63447;BME280;49577;49.872;6.190;2022-08-03T03:23:29;99500.15;;;14.64;75.59
63447;BME280;49577;49.872;6.190;2022-08-03T03:25:55;99497.66;;;14.62;75.45
63447;BME280;49577;49.872;6.190;2022-08-03T03:28:21;99499.13;;;14.57;75.39
63447;BME280;49577;49.872;6.190;2022-08-03T03:30:46;99497.36;;;14.51;75.83
63447;BME280;49577;49.872;6.190;2022-08-03T03:33:11;99497.39;;;14.48;75.78
63447;BME280;49577;49.872;6.190;2022-08-03T03:35:37;99497.48;;;14.47;75.95
63447;BME280;49577;49.872;6.190;2022-08-03T03:38:02;99498.73;;;14.47;75.97
63447;BME280;49577;49.872;6.190;2022-08-03T03:40:28;99496.91;;;14.45;75.94
63447;BME280;49577;49.872;6.190;2022-08-03T03:42:53;99499.67;;;14.43;76.06
63447;BME280;49577;49.872;6.190;2022-08-03T03:45:18;99498.20;;;14.42;75.96
63447;BME280;49577;49.872;6.190;2022-08-03T03:47:44;99506.16;;;14.41;76.04
63447;BME280;49577;49.872;6.190;2022-08-03T03:50:09;99505.02;;;14.40;76.05
63447;BME280;49577;49.872;6.190;2022-08-03T03:52:36;99509.81;;;14.35;75.86
63447;BME280;49577;49.872;6.190;2022-08-03T03:55:02;99508.89;;;14.31;76.07
63447;BME280;49577;49.872;6.190;2022-08-03T03:57:27;99504.27;;;14.29;76.06
63447;BME280;49577;49.872;6.190;2022-08-03T03:59:53;99502.70;;;14.31;76.17
63447;BME280;49577;49.872;6.190;2022-08-03T04:02:18;99502.77;;;14.33;75.98
63447;BME280;49577;49.872;6.190;2022-08-03T04:04:43;99503.27;;;14.33;76.01
63447;BME280;49577;49.872;6.190;2022-08-03T04:07:27;99504.84;;;14.31;75.90
63447;BME280;49577;49.872;6.190;2022-08-03T04:10:16;99505.04;;;14.29;75.85
63447;BME280;49577;49.872;6.190;2022-08-03T04:13:02;99504.23;;;14.26;75.99
63447;BME280;49577;49.872;6.190;2022-08-03T04:15:31;99502.75;;;14.22;76.06
63447;BME280;49577;49.872;6.190;2022-08-03T04:17:57;99501.19;;;14.20;76.06
63447;BME280;49577;49.872;6.190;2022-08-03T04:20:25;99497.14;;;14.18;76.33
63447;BME280;49577;49.872;6.190;2022-08-03T04:22:52;99492.17;;;14.16;76.35
63447;BME280;49577;49.872;6.190;2022-08-03T04:25:18;99495.89;;;14.18;76.24
63447;BME280;49577;49.872;6.190;2022-08-03T04:27:45;99496.52;;;14.21;76.39
63447;BME280;49577;49.872;6.190;2022-08-03T04:30:11;99498.89;;;14.24;76.27
63447;BME280;49577;49.872;6.190;2022-08-03T04:32:37;99499.27;;;14.26;76.13
63447;BME280;49577;49.872;6.190;2022-08-03T04:35:03;99499.61;;;14.28;76.33
63447;BME280;49577;49.872;6.190;2022-08-03T04:37:37;99500.27;;;14.31;76.59
63447;BME280;49577;49.872;6.190;2022-08-03T04:40:04;99500.63;;;14.33;76.55
63447;BME280;49577;49.872;6.190;2022-08-03T04:42:31;99507.00;;;14.35;76.46
63447;BME280;49577;49.872;6.190;2022-08-03T04:44:57;99505.40;;;14.37;76.52
63447;BME280;49577;49.872;6.190;2022-08-03T04:47:22;99509.00;;;14.41;76.42
63447;BME280;49577;49.872;6.190;2022-08-03T04:49:48;99516.33;;;14.44;76.37
63447;BME280;49577;49.872;6.190;2022-08-03T04:52:13;99518.44;;;14.48;76.36
63447;BME280;49577;49.872;6.190;2022-08-03T04:54:39;99517.70;;;14.53;76.28
63447;BME280;49577;49.872;6.190;2022-08-03T04:57:05;99521.08;;;14.57;76.37
63447;BME280;49577;49.872;6.190;2022-08-03T04:59:30;99522.21;;;14.63;76.46
63447;BME280;49577;49.872;6.190;2022-08-03T05:01:55;99522.11;;;14.68;76.25
63447;BME280;49577;49.872;6.190;2022-08-03T05:04:20;99518.45;;;14.74;76.00
63447;BME280;49577;49.872;6.190;2022-08-03T05:06:47;99521.44;;;14.81;75.97
63447;BME280;49577;49.872;6.190;2022-08-03T05:09:12;99524.63;;;14.89;75.85
63447;BME280;49577;49.872;6.190;2022-08-03T05:11:37;99526.80;;;14.95;75.82
63447;BME280;49577;49.872;6.190;2022-08-03T05:14:02;99529.77;;;14.97;75.75
63447;BME280;49577;49.872;6.190;2022-08-03T05:16:28;99529.41;;;14.98;76.17
63447;BME280;49577;49.872;6.190;2022-08-03T05:18:53;99533.58;;;15.00;76.16
63447;BME280;49577;49.872;6.190;2022-08-03T05:21:18;99525.66;;;15.05;76.33
63447;BME280;49577;49.872;6.190;2022-08-03T05:23:43;99526.58;;;15.16;76.12
63447;BME280;49577;49.872;6.190;2022-08-03T05:26:09;99521.59;;;15.70;75.18
63447;BME280;49577;49.872;6.190;2022-08-03T05:28:36;99525.02;;;16.68;73.84
63447;BME280;49577;49.872;6.190;2022-08-03T05:31:01;99522.73;;;17.72;71.76
63447;BME280;49577;49.872;6.190;2022-08-03T05:33:27;99526.42;;;18.67;69.40
63447;BME280;49577;49.872;6.190;2022-08-03T05:35:52;99526.52;;;19.53;67.33
63447;BME280;49577;49.872;6.190;2022-08-03T05:38:17;99523.02;;;20.41;65.11
63447;BME280;49577;49.872;6.190;2022-08-03T05:40:43;99519.52;;;21.14;63.33
63447;BME280;49577;49.872;6.190;2022-08-03T05:43:08;99522.80;;;22.00;60.84
63447;BME280;49577;49.872;6.190;2022-08-03T05:45:33;99523.39;;;22.64;58.82
63447;BME280;49577;49.872;6.190;2022-08-03T05:48:00;99524.19;;;23.27;56.87
63447;BME280;49577;49.872;6.190;2022-08-03T05:50:25;99522.27;;;23.83;55.41
63447;BME280;49577;49.872;6.190;2022-08-03T05:52:53;99525.77;;;24.40;53.50
63447;BME280;49577;49.872;6.190;2022-08-03T05:55:19;99520.98;;;24.94;52.28
63447;BME280;49577;49.872;6.190;2022-08-03T05:57:44;99519.33;;;25.40;50.93
63447;BME280;49577;49.872;6.190;2022-08-03T06:00:10;99517.88;;;25.82;49.62
63447;BME280;49577;49.872;6.190;2022-08-03T06:02:35;99523.61;;;26.07;48.47
63447;BME280;49577;49.872;6.190;2022-08-03T06:05:01;99523.23;;;26.28;47.88
63447;BME280;49577;49.872;6.190;2022-08-03T06:07:26;99524.10;;;26.57;47.06
63447;BME280;49577;49.872;6.190;2022-08-03T06:09:52;99525.86;;;27.21;45.97
63447;BME280;49577;49.872;6.190;2022-08-03T06:12:17;99521.53;;;27.57;45.11
63447;BME280;49577;49.872;6.190;2022-08-03T06:14:42;99520.88;;;27.97;44.11
63447;BME280;49577;49.872;6.190;2022-08-03T06:17:07;99522.46;;;28.35;43.49
63447;BME280;49577;49.872;6.190;2022-08-03T06:19:33;99521.86;;;28.61;42.34
63447;BME280;49577;49.872;6.190;2022-08-03T06:21:58;99522.10;;;28.71;41.70
63447;BME280;49577;49.872;6.190;2022-08-03T06:24:23;99519.52;;;28.91;41.48
63447;BME280;49577;49.872;6.190;2022-08-03T06:26:48;99514.90;;;29.37;40.67
63447;BME280;49577;49.872;6.190;2022-08-03T06:29:14;99517.59;;;29.79;40.00
63447;BME280;49577;49.872;6.190;2022-08-03T06:31:39;99515.64;;;30.09;38.85
63447;BME280;49577;49.872;6.190;2022-08-03T06:34:04;99520.86;;;30.37;38.25
63447;BME280;49577;49.872;6.190;2022-08-03T06:36:30;99522.05;;;30.64;38.05
63447;BME280;49577;49.872;6.190;2022-08-03T06:38:56;99522.85;;;31.10;37.12
63447;BME280;49577;49.872;6.190;2022-08-03T06:41:21;99522.66;;;31.30;36.41
63447;BME280;49577;49.872;6.190;2022-08-03T06:43:47;99522.25;;;31.69;36.00
63447;BME280;49577;49.872;6.190;2022-08-03T06:46:12;99520.69;;;32.20;35.32
63447;BME280;49577;49.872;6.190;2022-08-03T06:48:37;99518.18;;;32.42;34.20
63447;BME280;49577;49.872;6.190;2022-08-03T06:51:02;99516.78;;;32.57;34.02
63447;BME280;49577;49.872;6.190;2022-08-03T06:53:28;99518.04;;;32.75;33.14
63447;BME280;49577;49.872;6.190;2022-08-03T06:55:53;99517.31;;;32.65;32.91
63447;BME280;49577;49.872;6.190;2022-08-03T06:58:18;99517.80;;;32.71;32.89
63447;BME280;49577;49.872;6.190;2022-08-03T07:00:43;99515.77;;;32.83;32.65
63447;BME280;49577;49.872;6.190;2022-08-03T07:03:08;99514.21;;;32.99;32.36
63447;BME280;49577;49.872;6.190;2022-08-03T07:05:34;99514.73;;;33.26;32.16
63447;BME280;49577;49.872;6.190;2022-08-03T07:07:59;99513.69;;;33.55;31.73
63447;BME280;49577;49.872;6.190;2022-08-03T07:10:26;99516.52;;;33.86;31.27
63447;BME280;49577;49.872;6.190;2022-08-03T07:12:51;99514.48;;;34.15;30.89
63447;BME280;49577;49.872;6.190;2022-08-03T07:15:17;99517.41;;;34.53;30.04
63447;BME280;49577;49.872;6.190;2022-08-03T07:17:42;99519.71;;;34.58;29.75
63447;BME280;49577;49.872;6.190;2022-08-03T07:20:08;99521.56;;;34.79;29.31
63447;BME280;49577;49.872;6.190;2022-08-03T07:22:34;99523.63;;;35.17;28.95
63447;BME280;49577;49.872;6.190;2022-08-03T07:25:02;99527.97;;;35.71;28.60
63447;BME280;49577;49.872;6.190;2022-08-03T07:27:27;99526.80;;;36.23;27.99
63447;BME280;49577;49.872;6.190;2022-08-03T07:29:54;99524.48;;;36.70;27.48
63447;BME280;49577;49.872;6.190;2022-08-03T07:32:19;99525.48;;;37.25;26.85
63447;BME280;49577;49.872;6.190;2022-08-03T07:34:44;99525.86;;;37.56;26.12
63447;BME280;49577;49.872;6.190;2022-08-03T07:37:10;99521.01;;;37.86;25.73
63447;BME280;49577;49.872;6.190;2022-08-03T07:39:35;99520.71;;;38.09;25.62
63447;BME280;49577;49.872;6.190;2022-08-03T07:42:00;99520.05;;;38.14;25.34
63447;BME280;49577;49.872;6.190;2022-08-03T07:44:25;99518.50;;;38.37;25.32
63447;BME280;49577;49.872;6.190;2022-08-03T07:46:51;99516.39;;;38.72;24.62
63447;BME280;49577;49.872;6.190;2022-08-03T07:49:16;99518.42;;;39.05;24.29
63447;BME280;49577;49.872;6.190;2022-08-03T07:51:41;99516.27;;;39.41;23.99
63447;BME280;49577;49.872;6.190;2022-08-03T07:54:06;99511.52;;;39.68;23.26
63447;BME280;49577;49.872;6.190;2022-08-03T07:56:34;99509.33;;;39.67;22.97
63447;BME280;49577;49.872;6.190;2022-08-03T07:58:59;99507.33;;;39.78;22.57
63447;BME280;49577;49.872;6.190;2022-08-03T08:01:24;99506.27;;;39.88;22.67
63447;BME280;49577;49.872;6.190;2022-08-03T08:03:49;99507.01;;;40.19;22.15
63447;BME280;49577;49.872;6.190;2022-08-03T08:06:15;99511.51;;;40.24;21.93
63447;BME280;49577;49.872;6.190;2022-08-03T08:08:40;99509.42;;;40.11;21.91
63447;BME280;49577;49.872;6.190;2022-08-03T08:11:05;99503.80;;;40.22;21.74
63447;BME280;49577;49.872;6.190;2022-08-03T08:13:31;99504.20;;;40.40;21.75
63447;BME280;49577;49.872;6.190;2022-08-03T08:15:56;99499.23;;;40.60;21.39
63447;BME280;49577;49.872;6.190;2022-08-03T08:18:21;99501.80;;;40.86;21.21
63447;BME280;49577;49.872;6.190;2022-08-03T08:20:48;99499.14;;;41.15;21.01
63447;BME280;49577;49.872;6.190;2022-08-03T08:23:13;99493.14;;;41.36;20.67
63447;BME280;49577;49.872;6.190;2022-08-03T08:25:38;99495.88;;;41.39;20.57
63447;BME280;49577;49.872;6.190;2022-08-03T08:28:04;99491.04;;;41.46;20.41
63447;BME280;49577;49.872;6.190;2022-08-03T08:30:29;99487.59;;;41.57;20.41
63447;BME280;49577;49.872;6.190;2022-08-03T08:32:55;99483.41;;;41.75;20.16
63447;BME280;49577;49.872;6.190;2022-08-03T08:35:21;99481.71;;;41.74;20.02
63447;BME280;49577;49.872;6.190;2022-08-03T08:37:46;99481.80;;;41.72;20.06
63447;BME280;49577;49.872;6.190;2022-08-03T08:40:12;99476.01;;;41.93;19.89
63447;BME280;49577;49.872;6.190;2022-08-03T08:42:38;99478.26;;;42.04;19.46
63447;BME280;49577;49.872;6.190;2022-08-03T08:45:04;99476.99;;;42.14;19.27
63447;BME280;49577;49.872;6.190;2022-08-03T08:47:30;99473.98;;;42.20;19.19
63447;BME280;49577;49.872;6.190;2022-08-03T08:49:56;99476.31;;;42.08;18.98
63447;BME280;49577;49.872;6.190;2022-08-03T08:52:25;99474.80;;;41.96;18.90
63447;BME280;49577;49.872;6.190;2022-08-03T08:54:58;99473.46;;;41.97;18.86
63447;BME280;49577;49.872;6.190;2022-08-03T08:57:25;99471.50;;;41.93;18.93
63447;BME280;49577;49.872;6.190;2022-08-03T08:59:53;99472.97;;;42.09;18.54
63447;BME280;49577;49.872;6.190;2022-08-03T09:02:20;99472.95;;;42.51;18.37
63447;BME280;49577;49.872;6.190;2022-08-03T09:04:46;99473.17;;;42.98;17.93
63447;BME280;49577;49.872;6.190;2022-08-03T09:07:12;99474.73;;;43.05;17.75
63447;BME280;49577;49.872;6.190;2022-08-03T09:09:38;99468.28;;;43.11;17.40
63447;BME280;49577;49.872;6.190;2022-08-03T09:12:03;99469.02;;;43.08;17.10
63447;BME280;49577;49.872;6.190;2022-08-03T09:14:28;99470.83;;;43.04;17.22
63447;BME280;49577;49.872;6.190;2022-08-03T09:16:54;99471.38;;;43.27;17.03
63447;BME280;49577;49.872;6.190;2022-08-03T09:19:20;99470.53;;;43.59;16.44
63447;BME280;49577;49.872;6.190;2022-08-03T09:21:45;99470.77;;;43.97;15.89
63447;BME280;49577;49.872;6.190;2022-08-03T09:24:12;99473.47;;;43.81;15.84
63447;BME280;49577;49.872;6.190;2022-08-03T09:26:37;99474.73;;;43.75;15.82
63447;BME280;49577;49.872;6.190;2022-08-03T09:29:09;99472.57;;;43.68;15.77
63447;BME280;49577;49.872;6.190;2022-08-03T09:31:35;99470.70;;;43.75;15.76
63447;BME280;49577;49.872;6.190;2022-08-03T09:34:04;99467.42;;;43.86;15.64
63447;BME280;49577;49.872;6.190;2022-08-03T09:36:48;99468.58;;;44.02;15.64
63447;BME280;49577;49.872;6.190;2022-08-03T09:39:18;99465.31;;;44.15;15.59
63447;BME280;49577;49.872;6.190;2022-08-03T09:42:03;99463.78;;;44.12;15.76
63447;BME280;49577;49.872;6.190;2022-08-03T09:44:35;99460.52;;;44.22;15.88
63447;BME280;49577;49.872;6.190;2022-08-03T09:47:01;99458.08;;;44.28;15.74
63447;BME280;49577;49.872;6.190;2022-08-03T09:49:26;99461.14;;;44.29;15.80
63447;BME280;49577;49.872;6.190;2022-08-03T09:51:52;99454.26;;;44.55;15.76
63447;BME280;49577;49.872;6.190;2022-08-03T09:54:27;99450.82;;;44.76;15.50
63447;BME280;49577;49.872;6.190;2022-08-03T09:56:52;99454.67;;;44.64;15.30
63447;BME280;49577;49.872;6.190;2022-08-03T09:59:25;99455.84;;;44.55;15.20
63447;BME280;49577;49.872;6.190;2022-08-03T10:01:50;99453.21;;;44.53;15.41
63447;BME280;49577;49.872;6.190;2022-08-03T10:04:16;99444.30;;;44.55;15.27
63447;BME280;49577;49.872;6.190;2022-08-03T10:06:45;99443.14;;;44.56;15.30
63447;BME280;49577;49.872;6.190;2022-08-03T10:09:14;99437.91;;;44.62;15.25
63447;BME280;49577;49.872;6.190;2022-08-03T10:11:39;99436.06;;;44.64;15.16
63447;BME280;49577;49.872;6.190;2022-08-03T10:14:06;99434.92;;;44.51;14.70
63447;BME280;49577;49.872;6.190;2022-08-03T10:16:35;99430.48;;;43.53;15.05
63447;BME280;49577;49.872;6.190;2022-08-03T10:19:01;99430.32;;;43.14;15.87
63447;BME280;49577;49.872;6.190;2022-08-03T10:21:27;99428.19;;;43.20;15.88
63447;BME280;49577;49.872;6.190;2022-08-03T10:23:56;99426.48;;;43.40;15.45
63447;BME280;49577;49.872;6.190;2022-08-03T10:26:21;99422.42;;;43.44;15.24
63447;BME280;49577;49.872;6.190;2022-08-03T10:28:49;99421.48;;;43.48;15.11
63447;BME280;49577;49.872;6.190;2022-08-03T10:31:17;99416.29;;;43.49;15.10
63447;BME280;49577;49.872;6.190;2022-08-03T10:33:46;99412.46;;;43.69;15.10
63447;BME280;49577;49.872;6.190;2022-08-03T10:36:13;99410.73;;;43.93;15.07
63447;BME280;49577;49.872;6.190;2022-08-03T10:38:48;99411.66;;;44.13;14.96
63447;BME280;49577;49.872;6.190;2022-08-03T10:41:18;99409.48;;;44.34;14.39
63447;BME280;49577;49.872;6.190;2022-08-03T10:44:04;99411.13;;;44.55;14.47
63447;BME280;49577;49.872;6.190;2022-08-03T10:46:30;99408.89;;;44.74;14.14
63447;BME280;49577;49.872;6.190;2022-08-03T10:48:57;99403.70;;;45.08;14.02
63447;BME280;49577;49.872;6.190;2022-08-03T10:51:22;99401.27;;;45.34;13.53
63447;BME280;49577;49.872;6.190;2022-08-03T10:53:48;99395.27;;;45.32;13.51
63447;BME280;49577;49.872;6.190;2022-08-03T10:59:16;99391.18;;;44.94;13.80
63447;BME280;49577;49.872;6.190;2022-08-03T11:01:51;99388.02;;;45.00;13.87
63447;BME280;49577;49.872;6.190;2022-08-03T11:04:17;99391.97;;;45.12;13.93
63447;BME280;49577;49.872;6.190;2022-08-03T11:06:43;99388.23;;;45.17;13.65
63447;BME280;49577;49.872;6.190;2022-08-03T11:11:33;99380.06;;;44.51;13.61
63447;BME280;49577;49.872;6.190;2022-08-03T11:14:00;99381.65;;;43.85;13.82
63447;BME280;49577;49.872;6.190;2022-08-03T11:16:29;99374.89;;;43.93;14.20
63447;BME280;49577;49.872;6.190;2022-08-03T11:18:59;99373.67;;;43.96;14.26
63447;BME280;49577;49.872;6.190;2022-08-03T11:24:08;99371.29;;;44.38;14.14
63447;BME280;49577;49.872;6.190;2022-08-03T11:26:34;99367.27;;;44.50;14.20
63447;BME280;49577;49.872;6.190;2022-08-03T11:31:57;99369.09;;;45.15;13.94
63447;BME280;49577;49.872;6.190;2022-08-03T11:34:22;99367.02;;;45.51;13.48
63447;BME280;49577;49.872;6.190;2022-08-03T11:42:36;99365.14;;;44.28;13.99
63447;BME280;49577;49.872;6.190;2022-08-03T11:44:49;99361.54;;;43.53;14.55
63447;BME280;49577;49.872;6.190;2022-08-03T11:47:14;99355.95;;;42.87;14.80
63447;BME280;49577;49.872;6.190;2022-08-03T11:49:42;99349.52;;;41.93;15.51
63447;BME280;49577;49.872;6.190;2022-08-03T11:52:08;99345.69;;;41.25;16.05
63447;BME280;49577;49.872;6.190;2022-08-03T11:54:33;99347.20;;;40.66;16.45
63447;BME280;49577;49.872;6.190;2022-08-03T11:56:58;99344.17;;;40.38;16.88
63447;BME280;49577;49.872;6.190;2022-08-03T11:59:33;99342.61;;;40.07;17.06
63447;BME280;49577;49.872;6.190;2022-08-03T12:02:08;99340.33;;;39.54;17.48
63447;BME280;49577;49.872;6.190;2022-08-03T12:07:14;99343.66;;;39.27;17.94
63447;BME280;49577;49.872;6.190;2022-08-03T12:09:41;99345.20;;;39.21;17.96
63447;BME280;49577;49.872;6.190;2022-08-03T12:12:06;99343.52;;;39.13;18.10
63447;BME280;49577;49.872;6.190;2022-08-03T12:14:32;99342.77;;;39.00;18.19
63447;BME280;49577;49.872;6.190;2022-08-03T12:16:57;99337.74;;;38.71;18.24
63447;BME280;49577;49.872;6.190;2022-08-03T12:19:22;99336.70;;;38.37;18.44
63447;BME280;49577;49.872;6.190;2022-08-03T12:21:48;99333.81;;;38.26;18.37
63447;BME280;49577;49.872;6.190;2022-08-03T12:24:14;99329.38;;;38.11;18.68
63447;BME280;49577;49.872;6.190;2022-08-03T12:26:46;99322.85;;;37.97;18.88
63447;BME280;49577;49.872;6.190;2022-08-03T12:29:30;99320.59;;;37.91;18.94
63447;BME280;49577;49.872;6.190;2022-08-03T12:31:55;99318.83;;;37.70;19.15
63447;BME280;49577;49.872;6.190;2022-08-03T12:34:20;99315.73;;;37.55;19.41
63447;BME280;49577;49.872;6.190;2022-08-03T12:36:49;99313.64;;;37.46;19.51
63447;BME280;49577;49.872;6.190;2022-08-03T12:39:15;99312.60;;;37.36;19.51
63447;BME280;49577;49.872;6.190;2022-08-03T12:41:40;99312.67;;;37.43;19.51
63447;BME280;49577;49.872;6.190;2022-08-03T12:44:06;99311.28;;;37.59;19.32
63447;BME280;49577;49.872;6.190;2022-08-03T12:49:04;99306.39;;;37.61;18.88
63447;BME280;49577;49.872;6.190;2022-08-03T12:51:31;99306.61;;;37.39;19.26
63447;BME280;49577;49.872;6.190;2022-08-03T12:53:57;99313.11;;;37.20;19.15
63447;BME280;49577;49.872;6.190;2022-08-03T12:56:22;99307.66;;;37.12;19.44
63447;BME280;49577;49.872;6.190;2022-08-03T12:58:48;99307.63;;;37.04;19.32
63447;BME280;49577;49.872;6.190;2022-08-03T13:01:17;99304.52;;;37.06;19.44
63447;BME280;49577;49.872;6.190;2022-08-03T13:03:44;99302.29;;;37.07;19.31
63447;BME280;49577;49.872;6.190;2022-08-03T13:06:11;99306.58;;;37.05;19.49
63447;BME280;49577;49.872;6.190;2022-08-03T13:08:37;99306.58;;;37.09;19.23
63447;BME280;49577;49.872;6.190;2022-08-03T13:13:43;99303.02;;;37.14;18.85
63447;BME280;49577;49.872;6.190;2022-08-03T13:16:08;99302.59;;;37.11;19.10
63447;BME280;49577;49.872;6.190;2022-08-03T13:18:34;99302.02;;;37.15;19.32
63447;BME280;49577;49.872;6.190;2022-08-03T13:20:59;99298.00;;;37.25;19.20
63447;BME280;49577;49.872;6.190;2022-08-03T13:23:24;99291.74;;;37.41;19.18
63447;BME280;49577;49.872;6.190;2022-08-03T13:25:49;99291.48;;;37.52;19.54
63447;BME280;49577;49.872;6.190;2022-08-03T13:28:15;99290.31;;;37.65;19.49
63447;BME280;49577;49.872;6.190;2022-08-03T13:30:40;99286.81;;;37.73;19.44
63447;BME280;49577;49.872;6.190;2022-08-03T13:33:05;99286.41;;;37.71;19.49
63447;BME280;49577;49.872;6.190;2022-08-03T13:35:32;99276.27;;;37.55;19.39
63447;BME280;49577;49.872;6.190;2022-08-03T13:37:57;99272.61;;;37.40;19.67